sensor_id;sensor_type;location;lat;lon;timestamp;P1;P2;P0
49778;PMS5003;36217;60.232;24.776;2022-09-29T00:01:57;3;3;
49778;PMS5003;36217;60.232;24.776;2022-09-29T00:04:24;5;4;
49778;PMS5003;36217;60.232;24.776;2022-09-29T00:06:51;4;4;
49778;PMS5003;36217;60.232;24.776;2022-09-29T00:09:18;3;3;
49778;PMS5003;36217;60.232;24.776;2022-09-29T00:11:45;3;3;
49778;PMS5003;36217;60.232;24.776;2022-09-29T00:14:12;3;3;
49778;PMS5003;36217;60.232;24.776;2022-09-29T00:16:39;3;3;
49778;PMS5003;36217;60.232;24.776;2022-09-29T00:19:06;6;4;
49778;PMS5003;36217;60.232;24.776;2022-09-29T00:21:34;4;4;
49778;PMS5003;36217;60.232;24.776;2022-09-29T00:24:00;3;3;
49778;PMS5003;36217;60.232;24.776;2022-09-29T00:26:27;6;4;
49778;PMS5003;36217;60.232;24.776;2022-09-29T00:28:55;4;4;
49778;PMS5003;36217;60.232;24.776;2022-09-29T00:31:24;4;4;
49778;PMS5003;36217;60.232;24.776;2022-09-29T00:33:52;4;3;
49778;PMS5003;36217;60.232;24.776;2022-09-29T00:36:19;2;2;
49778;PMS5003;36217;60.232;24.776;2022-09-29T00:38:48;4;4;
49778;PMS5003;36217;60.232;24.776;2022-09-29T00:41:16;4;4;
49778;PMS5003;36217;60.232;24.776;2022-09-29T00:43:46;5;5;
49778;PMS5003;36217;60.232;24.776;2022-09-29T00:46:16;5;3;
49778;PMS5003;36217;60.232;24.776;2022-09-29T00:48:46;4;4;
49778;PMS5003;36217;60.232;24.776;2022-09-29T00:51:14;2;2;
49778;PMS5003;36217;60.232;24.776;2022-09-29T00:53:43;4;4;
49778;PMS5003;36217;60.232;24.776;2022-09-29T00:56:11;3;3;
49778;PMS5003;36217;60.232;24.776;2022-09-29T00:58:51;3;3;
49778;PMS5003;36217;60.232;24.776;2022-09-29T01:01:20;4;4;
49778;PMS5003;36217;60.232;24.776;2022-09-29T01:03:48;3;3;
49778;PMS5003;36217;60.232;24.776;2022-09-29T01:06:22;10;10;
49778;PMS5003;36217;60.232;24.776;2022-09-29T01:08:54;14;13;
49778;PMS5003;36217;60.232;24.776;2022-09-29T01:11:25;19;19;
49778;PMS5003;36217;60.232;24.776;2022-09-29T01:13:52;19;16;
49778;PMS5003;36217;60.232;24.776;2022-09-29T01:16:21;25;23;
49778;PMS5003;36217;60.232;24.776;2022-09-29T01:18:48;28;26;
49778;PMS5003;36217;60.232;24.776;2022-09-29T01:21:16;25;25;
49778;PMS5003;36217;60.232;24.776;2022-09-29T01:23:56;24;21;
49778;PMS5003;36217;60.232;24.776;2022-09-29T01:27:18;21;18;
49778;PMS5003;36217;60.232;24.776;2022-09-29T01:31:10;15;15;
49778;PMS5003;36217;60.232;24.776;2022-09-29T01:33:45;16;14;
49778;PMS5003;36217;60.232;24.776;2022-09-29T01:36:23;8;8;
49778;PMS5003;36217;60.232;24.776;2022-09-29T01:39:04;8;8;
49778;PMS5003;36217;60.232;24.776;2022-09-29T01:41:39;7;6;
49778;PMS5003;36217;60.232;24.776;2022-09-29T01:44:15;5;4;
49778;PMS5003;36217;60.232;24.776;2022-09-29T01:46:48;6;6;
49778;PMS5003;36217;60.232;24.776;2022-09-29T01:49:18;4;4;
49778;PMS5003;36217;60.232;24.776;2022-09-29T01:51:49;5;5;
49778;PMS5003;36217;60.232;24.776;2022-09-29T01:54:20;5;4;
49778;PMS5003;36217;60.232;24.776;2022-09-29T01:56:55;4;4;
49778;PMS5003;36217;60.232;24.776;2022-09-29T01:59:30;3;3;
49778;PMS5003;36217;60.232;24.776;2022-09-29T02:02:02;5;3;
49778;PMS5003;36217;60.232;24.776;2022-09-29T02:04:36;3;3;
49778;PMS5003;36217;60.232;24.776;2022-09-29T02:07:07;3;3;
49778;PMS5003;36217;60.232;24.776;2022-09-29T02:09:42;5;5;
49778;PMS5003;36217;60.232;24.776;2022-09-29T02:12:15;2;2;
49778;PMS5003;36217;60.232;24.776;2022-09-29T02:14:47;3;3;
49778;PMS5003;36217;60.232;24.776;2022-09-29T02:17:17;2;2;
49778;PMS5003;36217;60.232;24.776;2022-09-29T02:19:46;2;2;
49778;PMS5003;36217;60.232;24.776;2022-09-29T02:22:15;4;3;
49778;PMS5003;36217;60.232;24.776;2022-09-29T02:24:43;3;3;
49778;PMS5003;36217;60.232;24.776;2022-09-29T02:27:11;2;2;
49778;PMS5003;36217;60.232;24.776;2022-09-29T02:29:38;2;2;
49778;PMS5003;36217;60.232;24.776;2022-09-29T02:32:06;1;1;
49778;PMS5003;36217;60.232;24.776;2022-09-29T02:34:35;2;2;
49778;PMS5003;36217;60.232;24.776;2022-09-29T02:37:08;3;3;
49778;PMS5003;36217;60.232;24.776;2022-09-29T02:39:48;3;2;
49778;PMS5003;36217;60.232;24.776;2022-09-29T02:42:24;3;3;
49778;PMS5003;36217;60.232;24.776;2022-09-29T02:44:59;3;3;
49778;PMS5003;36217;60.232;24.776;2022-09-29T02:47:48;2;2;
49778;PMS5003;36217;60.232;24.776;2022-09-29T02:51:01;3;3;
49778;PMS5003;36217;60.232;24.776;2022-09-29T02:53:42;2;2;
49778;PMS5003;36217;60.232;24.776;2022-09-29T02:56:20;5;4;
49778;PMS5003;36217;60.232;24.776;2022-09-29T02:58:56;2;2;
49778;PMS5003;36217;60.232;24.776;2022-09-29T03:01:29;2;2;
49778;PMS5003;36217;60.232;24.776;2022-09-29T03:03:56;2;2;
49778;PMS5003;36217;60.232;24.776;2022-09-29T03:06:23;2;2;
49778;PMS5003;36217;60.232;24.776;2022-09-29T03:08:50;2;2;
49778;PMS5003;36217;60.232;24.776;2022-09-29T03:11:17;3;3;
49778;PMS5003;36217;60.232;24.776;2022-09-29T03:13:44;2;2;
49778;PMS5003;36217;60.232;24.776;2022-09-29T03:16:11;2;2;
49778;PMS5003;36217;60.232;24.776;2022-09-29T03:18:39;2;2;
49778;PMS5003;36217;60.232;24.776;2022-09-29T03:21:06;1;1;
49778;PMS5003;36217;60.232;24.776;2022-09-29T03:23:33;1;1;
49778;PMS5003;36217;60.232;24.776;2022-09-29T03:26:00;2;2;
49778;PMS5003;36217;60.232;24.776;2022-09-29T03:28:27;3;3;
49778;PMS5003;36217;60.232;24.776;2022-09-29T03:30:54;3;3;
49778;PMS5003;36217;60.232;24.776;2022-09-29T03:33:21;2;2;
49778;PMS5003;36217;60.232;24.776;2022-09-29T03:35:48;2;2;
49778;PMS5003;36217;60.232;24.776;2022-09-29T03:38:15;2;2;
49778;PMS5003;36217;60.232;24.776;2022-09-29T03:40:47;2;2;
49778;PMS5003;36217;60.232;24.776;2022-09-29T03:43:14;3;1;
49778;PMS5003;36217;60.232;24.776;2022-09-29T03:45:46;3;3;
49778;PMS5003;36217;60.232;24.776;2022-09-29T03:48:13;4;4;
49778;PMS5003;36217;60.232;24.776;2022-09-29T03:50:40;6;3;
49778;PMS5003;36217;60.232;24.776;2022-09-29T03:53:07;9;5;
49778;PMS5003;36217;60.232;24.776;2022-09-29T03:55:34;8;7;
49778;PMS5003;36217;60.232;24.776;2022-09-29T03:58:01;5;5;
49778;PMS5003;36217;60.232;24.776;2022-09-29T04:00:28;4;4;
49778;PMS5003;36217;60.232;24.776;2022-09-29T04:02:56;8;7;
49778;PMS5003;36217;60.232;24.776;2022-09-29T04:05:24;5;3;
49778;PMS5003;36217;60.232;24.776;2022-09-29T04:07:51;5;5;
49778;PMS5003;36217;60.232;24.776;2022-09-29T04:10:17;6;5;
49778;PMS5003;36217;60.232;24.776;2022-09-29T04:12:45;7;4;
49778;PMS5003;36217;60.232;24.776;2022-09-29T04:15:13;6;6;
49778;PMS5003;36217;60.232;24.776;2022-09-29T04:17:40;5;5;
49778;PMS5003;36217;60.232;24.776;2022-09-29T04:20:07;6;4;
49778;PMS5003;36217;60.232;24.776;2022-09-29T04:22:35;3;3;
49778;PMS5003;36217;60.232;24.776;2022-09-29T04:25:02;5;3;
49778;PMS5003;36217;60.232;24.776;2022-09-29T04:27:29;6;5;
49778;PMS5003;36217;60.232;24.776;2022-09-29T04:29:56;5;5;
49778;PMS5003;36217;60.232;24.776;2022-09-29T04:32:23;5;5;
49778;PMS5003;36217;60.232;24.776;2022-09-29T04:34:50;2;2;
49778;PMS5003;36217;60.232;24.776;2022-09-29T04:37:17;3;3;
49778;PMS5003;36217;60.232;24.776;2022-09-29T04:39:44;7;5;
49778;PMS5003;36217;60.232;24.776;2022-09-29T04:42:11;2;2;
49778;PMS5003;36217;60.232;24.776;2022-09-29T04:44:38;4;4;
49778;PMS5003;36217;60.232;24.776;2022-09-29T04:47:05;3;3;
49778;PMS5003;36217;60.232;24.776;2022-09-29T04:49:32;3;3;
49778;PMS5003;36217;60.232;24.776;2022-09-29T04:51:59;1;1;
49778;PMS5003;36217;60.232;24.776;2022-09-29T04:54:28;2;2;
49778;PMS5003;36217;60.232;24.776;2022-09-29T04:57:06;1;1;
49778;PMS5003;36217;60.232;24.776;2022-09-29T04:59:33;0;0;
49778;PMS5003;36217;60.232;24.776;2022-09-29T05:02:00;2;2;
49778;PMS5003;36217;60.232;24.776;2022-09-29T05:04:27;1;1;
49778;PMS5003;36217;60.232;24.776;2022-09-29T05:06:54;2;2;
49778;PMS5003;36217;60.232;24.776;2022-09-29T05:09:21;1;1;
49778;PMS5003;36217;60.232;24.776;2022-09-29T05:11:48;2;1;
49778;PMS5003;36217;60.232;24.776;2022-09-29T05:14:15;1;1;
49778;PMS5003;36217;60.232;24.776;2022-09-29T05:16:42;1;1;
49778;PMS5003;36217;60.232;24.776;2022-09-29T05:19:09;2;2;
49778;PMS5003;36217;60.232;24.776;2022-09-29T05:21:41;4;2;
49778;PMS5003;36217;60.232;24.776;2022-09-29T05:24:08;1;1;
49778;PMS5003;36217;60.232;24.776;2022-09-29T05:26:35;1;1;
49778;PMS5003;36217;60.232;24.776;2022-09-29T05:29:02;1;1;
49778;PMS5003;36217;60.232;24.776;2022-09-29T05:31:29;1;1;
49778;PMS5003;36217;60.232;24.776;2022-09-29T05:33:56;1;1;
49778;PMS5003;36217;60.232;24.776;2022-09-29T05:36:23;2;0;
49778;PMS5003;36217;60.232;24.776;2022-09-29T05:38:50;1;1;
49778;PMS5003;36217;60.232;24.776;2022-09-29T05:41:17;1;1;
49778;PMS5003;36217;60.232;24.776;2022-09-29T05:43:44;6;2;
49778;PMS5003;36217;60.232;24.776;2022-09-29T05:46:21;1;0;
49778;PMS5003;36217;60.232;24.776;2022-09-29T05:48:49;1;1;
49778;PMS5003;36217;60.232;24.776;2022-09-29T05:51:17;1;1;
49778;PMS5003;36217;60.232;24.776;2022-09-29T05:53:46;1;1;
49778;PMS5003;36217;60.232;24.776;2022-09-29T05:56:14;0;0;
49778;PMS5003;36217;60.232;24.776;2022-09-29T05:58:43;2;1;
49778;PMS5003;36217;60.232;24.776;2022-09-29T06:01:11;1;1;
49778;PMS5003;36217;60.232;24.776;2022-09-29T06:03:40;2;1;
49778;PMS5003;36217;60.232;24.776;2022-09-29T06:06:07;3;1;
49778;PMS5003;36217;60.232;24.776;2022-09-29T06:08:46;1;1;
49778;PMS5003;36217;60.232;24.776;2022-09-29T06:11:15;1;1;
49778;PMS5003;36217;60.232;24.776;2022-09-29T06:13:44;1;0;
49778;PMS5003;36217;60.232;24.776;2022-09-29T06:16:14;1;0;
49778;PMS5003;36217;60.232;24.776;2022-09-29T06:18:42;0;0;
49778;PMS5003;36217;60.232;24.776;2022-09-29T06:21:10;0;0;
49778;PMS5003;36217;60.232;24.776;2022-09-29T06:23:38;1;1;
49778;PMS5003;36217;60.232;24.776;2022-09-29T06:26:06;0;0;
49778;PMS5003;36217;60.232;24.776;2022-09-29T06:28:34;1;1;
49778;PMS5003;36217;60.232;24.776;2022-09-29T06:31:06;1;1;
49778;PMS5003;36217;60.232;24.776;2022-09-29T06:33:36;1;1;
49778;PMS5003;36217;60.232;24.776;2022-09-29T06:36:05;0;0;
49778;PMS5003;36217;60.232;24.776;2022-09-29T06:38:40;4;0;
49778;PMS5003;36217;60.232;24.776;2022-09-29T06:41:07;0;0;
49778;PMS5003;36217;60.232;24.776;2022-09-29T06:43:35;0;0;
49778;PMS5003;36217;60.232;24.776;2022-09-29T06:46:02;1;0;
49778;PMS5003;36217;60.232;24.776;2022-09-29T06:48:29;0;0;
49778;PMS5003;36217;60.232;24.776;2022-09-29T06:50:56;0;0;
49778;PMS5003;36217;60.232;24.776;2022-09-29T06:53:23;0;0;
49778;PMS5003;36217;60.232;24.776;2022-09-29T06:55:51;0;0;
49778;PMS5003;36217;60.232;24.776;2022-09-29T06:58:18;2;0;
49778;PMS5003;36217;60.232;24.776;2022-09-29T07:00:45;0;0;
49778;PMS5003;36217;60.232;24.776;2022-09-29T07:03:12;0;0;
49778;PMS5003;36217;60.232;24.776;2022-09-29T07:05:40;0;0;
49778;PMS5003;36217;60.232;24.776;2022-09-29T07:08:07;1;1;
49778;PMS5003;36217;60.232;24.776;2022-09-29T07:10:34;0;0;
49778;PMS5003;36217;60.232;24.776;2022-09-29T07:13:01;0;0;
49778;PMS5003;36217;60.232;24.776;2022-09-29T07:15:28;0;0;
49778;PMS5003;36217;60.232;24.776;2022-09-29T07:17:55;0;0;
49778;PMS5003;36217;60.232;24.776;2022-09-29T07:20:22;0;0;
49778;PMS5003;36217;60.232;24.776;2022-09-29T07:22:49;0;0;
49778;PMS5003;36217;60.232;24.776;2022-09-29T07:25:16;0;0;
49778;PMS5003;36217;60.232;24.776;2022-09-29T07:27:45;0;0;
49778;PMS5003;36217;60.232;24.776;2022-09-29T07:30:12;0;0;
49778;PMS5003;36217;60.232;24.776;2022-09-29T07:32:40;0;0;
49778;PMS5003;36217;60.232;24.776;2022-09-29T07:35:07;0;0;
49778;PMS5003;36217;60.232;24.776;2022-09-29T07:37:34;1;1;
49778;PMS5003;36217;60.232;24.776;2022-09-29T07:40:02;0;0;
49778;PMS5003;36217;60.232;24.776;2022-09-29T07:42:29;0;0;
49778;PMS5003;36217;60.232;24.776;2022-09-29T07:44:56;0;0;
49778;PMS5003;36217;60.232;24.776;2022-09-29T07:47:23;0;0;
49778;PMS5003;36217;60.232;24.776;2022-09-29T07:49:50;0;0;
49778;PMS5003;36217;60.232;24.776;2022-09-29T07:52:17;0;0;
49778;PMS5003;36217;60.232;24.776;2022-09-29T07:54:44;0;0;
49778;PMS5003;36217;60.232;24.776;2022-09-29T07:57:11;0;0;
49778;PMS5003;36217;60.232;24.776;2022-09-29T07:59:38;0;0;
49778;PMS5003;36217;60.232;24.776;2022-09-29T08:02:05;0;0;
49778;PMS5003;36217;60.232;24.776;2022-09-29T08:04:32;0;0;
49778;PMS5003;36217;60.232;24.776;2022-09-29T08:06:59;0;0;
49778;PMS5003;36217;60.232;24.776;2022-09-29T08:09:26;1;1;
49778;PMS5003;36217;60.232;24.776;2022-09-29T08:11:53;0;0;
49778;PMS5003;36217;60.232;24.776;2022-09-29T08:14:20;0;0;
49778;PMS5003;36217;60.232;24.776;2022-09-29T08:16:47;0;0;
49778;PMS5003;36217;60.232;24.776;2022-09-29T08:19:14;0;0;
49778;PMS5003;36217;60.232;24.776;2022-09-29T08:21:41;0;0;
49778;PMS5003;36217;60.232;24.776;2022-09-29T08:24:08;0;0;
49778;PMS5003;36217;60.232;24.776;2022-09-29T08:26:38;0;0;
49778;PMS5003;36217;60.232;24.776;2022-09-29T08:29:05;0;0;
49778;PMS5003;36217;60.232;24.776;2022-09-29T08:31:33;1;1;
49778;PMS5003;36217;60.232;24.776;2022-09-29T08:34:00;0;0;
49778;PMS5003;36217;60.232;24.776;2022-09-29T08:36:27;0;0;
49778;PMS5003;36217;60.232;24.776;2022-09-29T08:38:55;0;0;
49778;PMS5003;36217;60.232;24.776;2022-09-29T08:41:27;0;0;
49778;PMS5003;36217;60.232;24.776;2022-09-29T08:44:10;0;0;
49778;PMS5003;36217;60.232;24.776;2022-09-29T08:46:44;0;0;
49778;PMS5003;36217;60.232;24.776;2022-09-29T08:49:16;0;0;
49778;PMS5003;36217;60.232;24.776;2022-09-29T08:51:47;0;0;
49778;PMS5003;36217;60.232;24.776;2022-09-29T08:54:21;0;0;
49778;PMS5003;36217;60.232;24.776;2022-09-29T08:56:52;0;0;
49778;PMS5003;36217;60.232;24.776;2022-09-29T08:59:19;0;0;
49778;PMS5003;36217;60.232;24.776;2022-09-29T09:01:50;1;1;
49778;PMS5003;36217;60.232;24.776;2022-09-29T09:04:31;0;0;
49778;PMS5003;36217;60.232;24.776;2022-09-29T09:07:09;0;0;
49778;PMS5003;36217;60.232;24.776;2022-09-29T09:09:45;1;1;
49778;PMS5003;36217;60.232;24.776;2022-09-29T09:12:22;0;0;
49778;PMS5003;36217;60.232;24.776;2022-09-29T09:15:05;0;0;
49778;PMS5003;36217;60.232;24.776;2022-09-29T09:17:48;1;0;
49778;PMS5003;36217;60.232;24.776;2022-09-29T09:20:30;1;1;
49778;PMS5003;36217;60.232;24.776;2022-09-29T09:22:59;0;0;
49778;PMS5003;36217;60.232;24.776;2022-09-29T09:25:31;0;0;
49778;PMS5003;36217;60.232;24.776;2022-09-29T09:28:04;0;0;
49778;PMS5003;36217;60.232;24.776;2022-09-29T09:30:39;0;0;
49778;PMS5003;36217;60.232;24.776;2022-09-29T09:33:15;1;1;
49778;PMS5003;36217;60.232;24.776;2022-09-29T09:35:48;0;0;
49778;PMS5003;36217;60.232;24.776;2022-09-29T09:38:20;0;0;
49778;PMS5003;36217;60.232;24.776;2022-09-29T09:40:50;1;1;
49778;PMS5003;36217;60.232;24.776;2022-09-29T09:43:32;0;0;
49778;PMS5003;36217;60.232;24.776;2022-09-29T09:46:07;0;0;
49778;PMS5003;36217;60.232;24.776;2022-09-29T09:48:40;0;0;
49778;PMS5003;36217;60.232;24.776;2022-09-29T09:51:20;0;0;
49778;PMS5003;36217;60.232;24.776;2022-09-29T09:53:56;0;0;
49778;PMS5003;36217;60.232;24.776;2022-09-29T09:56:29;0;0;
49778;PMS5003;36217;60.232;24.776;2022-09-29T09:59:11;0;0;
49778;PMS5003;36217;60.232;24.776;2022-09-29T10:01:49;0;0;
49778;PMS5003;36217;60.232;24.776;2022-09-29T10:04:16;0;0;
49778;PMS5003;36217;60.232;24.776;2022-09-29T10:06:43;1;1;
49778;PMS5003;36217;60.232;24.776;2022-09-29T10:09:12;0;0;
49778;PMS5003;36217;60.232;24.776;2022-09-29T10:11:40;0;0;
49778;PMS5003;36217;60.232;24.776;2022-09-29T10:14:10;0;0;
49778;PMS5003;36217;60.232;24.776;2022-09-29T10:16:42;0;0;
49778;PMS5003;36217;60.232;24.776;2022-09-29T10:19:14;0;0;
49778;PMS5003;36217;60.232;24.776;2022-09-29T10:21:47;0;0;
49778;PMS5003;36217;60.232;24.776;2022-09-29T10:24:23;0;0;
49778;PMS5003;36217;60.232;24.776;2022-09-29T10:26:54;1;1;
49778;PMS5003;36217;60.232;24.776;2022-09-29T10:29:24;0;0;
49778;PMS5003;36217;60.232;24.776;2022-09-29T10:31:57;1;1;
49778;PMS5003;36217;60.232;24.776;2022-09-29T10:34:28;1;1;
49778;PMS5003;36217;60.232;24.776;2022-09-29T10:36:56;0;0;
49778;PMS5003;36217;60.232;24.776;2022-09-29T10:39:29;0;0;
49778;PMS5003;36217;60.232;24.776;2022-09-29T10:41:58;0;0;
49778;PMS5003;36217;60.232;24.776;2022-09-29T10:44:29;1;0;
49778;PMS5003;36217;60.232;24.776;2022-09-29T10:46:58;0;0;
49778;PMS5003;36217;60.232;24.776;2022-09-29T10:49:26;0;0;
49778;PMS5003;36217;60.232;24.776;2022-09-29T10:51:56;1;1;
49778;PMS5003;36217;60.232;24.776;2022-09-29T10:54:27;1;1;
49778;PMS5003;36217;60.232;24.776;2022-09-29T10:56:57;1;1;
49778;PMS5003;36217;60.232;24.776;2022-09-29T10:59:25;0;0;
49778;PMS5003;36217;60.232;24.776;2022-09-29T11:01:54;1;1;
49778;PMS5003;36217;60.232;24.776;2022-09-29T11:04:25;1;1;
49778;PMS5003;36217;60.232;24.776;2022-09-29T11:06:56;1;1;
49778;PMS5003;36217;60.232;24.776;2022-09-29T11:09:35;0;0;
49778;PMS5003;36217;60.232;24.776;2022-09-29T11:12:04;1;1;
49778;PMS5003;36217;60.232;24.776;2022-09-29T11:14:38;0;0;
49778;PMS5003;36217;60.232;24.776;2022-09-29T11:17:19;1;1;
49778;PMS5003;36217;60.232;24.776;2022-09-29T11:19:48;0;0;
49778;PMS5003;36217;60.232;24.776;2022-09-29T11:22:19;1;1;
49778;PMS5003;36217;60.232;24.776;2022-09-29T11:25:08;0;0;
49778;PMS5003;36217;60.232;24.776;2022-09-29T11:27:47;0;0;
49778;PMS5003;36217;60.232;24.776;2022-09-29T11:30:26;1;1;
49778;PMS5003;36217;60.232;24.776;2022-09-29T11:33:06;1;1;
49778;PMS5003;36217;60.232;24.776;2022-09-29T11:35:44;1;1;
49778;PMS5003;36217;60.232;24.776;2022-09-29T11:38:32;1;1;
49778;PMS5003;36217;60.232;24.776;2022-09-29T11:41:11;3;1;
49778;PMS5003;36217;60.232;24.776;2022-09-29T11:43:50;1;1;
49778;PMS5003;36217;60.232;24.776;2022-09-29T11:46:28;0;0;
49778;PMS5003;36217;60.232;24.776;2022-09-29T11:49:07;1;1;
49778;PMS5003;36217;60.232;24.776;2022-09-29T11:51:54;2;1;
49778;PMS5003;36217;60.232;24.776;2022-09-29T11:54:37;2;2;
49778;PMS5003;36217;60.232;24.776;2022-09-29T11:57:18;1;1;
49778;PMS5003;36217;60.232;24.776;2022-09-29T11:59:56;1;1;
49778;PMS5003;36217;60.232;24.776;2022-09-29T12:02:40;3;2;
49778;PMS5003;36217;60.232;24.776;2022-09-29T12:05:24;1;1;
49778;PMS5003;36217;60.232;24.776;2022-09-29T12:08:00;1;1;
49778;PMS5003;36217;60.232;24.776;2022-09-29T12:10:39;1;1;
49778;PMS5003;36217;60.232;24.776;2022-09-29T12:13:16;1;1;
49778;PMS5003;36217;60.232;24.776;2022-09-29T12:15:50;1;1;
49778;PMS5003;36217;60.232;24.776;2022-09-29T12:18:23;2;2;
49778;PMS5003;36217;60.232;24.776;2022-09-29T12:20:53;1;1;
49778;PMS5003;36217;60.232;24.776;2022-09-29T12:23:23;1;1;
49778;PMS5003;36217;60.232;24.776;2022-09-29T12:25:58;1;1;
49778;PMS5003;36217;60.232;24.776;2022-09-29T12:28:30;3;3;
49778;PMS5003;36217;60.232;24.776;2022-09-29T12:31:03;0;0;
49778;PMS5003;36217;60.232;24.776;2022-09-29T12:33:37;1;1;
49778;PMS5003;36217;60.232;24.776;2022-09-29T12:36:19;2;2;
49778;PMS5003;36217;60.232;24.776;2022-09-29T12:38:55;1;1;
49778;PMS5003;36217;60.232;24.776;2022-09-29T12:41:31;1;1;
49778;PMS5003;36217;60.232;24.776;2022-09-29T12:44:04;1;1;
49778;PMS5003;36217;60.232;24.776;2022-09-29T12:46:40;1;1;
49778;PMS5003;36217;60.232;24.776;2022-09-29T12:49:16;2;2;
49778;PMS5003;36217;60.232;24.776;2022-09-29T12:51:47;1;1;
49778;PMS5003;36217;60.232;24.776;2022-09-29T12:54:16;1;1;
49778;PMS5003;36217;60.232;24.776;2022-09-29T12:56:47;2;2;
49778;PMS5003;36217;60.232;24.776;2022-09-29T12:59:24;1;1;
49778;PMS5003;36217;60.232;24.776;2022-09-29T13:01:58;2;2;
49778;PMS5003;36217;60.232;24.776;2022-09-29T13:04:39;2;2;
49778;PMS5003;36217;60.232;24.776;2022-09-29T13:07:26;3;3;
49778;PMS5003;36217;60.232;24.776;2022-09-29T13:10:12;1;1;
49778;PMS5003;36217;60.232;24.776;2022-09-29T13:13:02;3;2;
49778;PMS5003;36217;60.232;24.776;2022-09-29T13:15:44;2;2;
49778;PMS5003;36217;60.232;24.776;2022-09-29T13:18:26;2;2;
49778;PMS5003;36217;60.232;24.776;2022-09-29T13:21:22;2;2;
49778;PMS5003;36217;60.232;24.776;2022-09-29T13:24:09;3;2;
49778;PMS5003;36217;60.232;24.776;2022-09-29T13:26:49;1;1;
49778;PMS5003;36217;60.232;24.776;2022-09-29T13:29:48;3;3;
49778;PMS5003;36217;60.232;24.776;2022-09-29T13:32:19;2;2;
49778;PMS5003;36217;60.232;24.776;2022-09-29T13:34:47;1;1;
49778;PMS5003;36217;60.232;24.776;2022-09-29T13:37:20;2;2;
49778;PMS5003;36217;60.232;24.776;2022-09-29T13:39:51;2;2;
49778;PMS5003;36217;60.232;24.776;2022-09-29T13:42:27;2;2;
49778;PMS5003;36217;60.232;24.776;2022-09-29T13:45:13;3;3;
49778;PMS5003;36217;60.232;24.776;2022-09-29T13:49:01;4;3;
49778;PMS5003;36217;60.232;24.776;2022-09-29T13:51:46;2;2;
49778;PMS5003;36217;60.232;24.776;2022-09-29T13:54:23;4;2;
49778;PMS5003;36217;60.232;24.776;2022-09-29T13:57:02;1;1;
49778;PMS5003;36217;60.232;24.776;2022-09-29T13:59:43;2;2;
49778;PMS5003;36217;60.232;24.776;2022-09-29T14:02:17;1;1;
49778;PMS5003;36217;60.232;24.776;2022-09-29T14:04:53;1;1;
49778;PMS5003;36217;60.232;24.776;2022-09-29T14:07:38;2;2;
49778;PMS5003;36217;60.232;24.776;2022-09-29T14:10:18;2;2;
49778;PMS5003;36217;60.232;24.776;2022-09-29T14:12:51;2;2;
49778;PMS5003;36217;60.232;24.776;2022-09-29T14:15:22;2;2;
49778;PMS5003;36217;60.232;24.776;2022-09-29T14:17:53;2;2;
49778;PMS5003;36217;60.232;24.776;2022-09-29T14:20:25;2;2;
49778;PMS5003;36217;60.232;24.776;2022-09-29T14:22:57;3;3;
49778;PMS5003;36217;60.232;24.776;2022-09-29T14:25:28;3;3;
49778;PMS5003;36217;60.232;24.776;2022-09-29T14:27:58;4;2;
49778;PMS5003;36217;60.232;24.776;2022-09-29T14:30:38;3;3;
49778;PMS5003;36217;60.232;24.776;2022-09-29T14:33:09;2;2;
49778;PMS5003;36217;60.232;24.776;2022-09-29T14:35:40;2;2;
49778;PMS5003;36217;60.232;24.776;2022-09-29T14:38:11;3;3;
49778;PMS5003;36217;60.232;24.776;2022-09-29T14:40:52;5;3;
49778;PMS5003;36217;60.232;24.776;2022-09-29T14:43:20;3;3;
49778;PMS5003;36217;60.232;24.776;2022-09-29T14:45:58;2;2;
49778;PMS5003;36217;60.232;24.776;2022-09-29T14:48:50;2;2;
49778;PMS5003;36217;60.232;24.776;2022-09-29T14:51:27;3;3;
49778;PMS5003;36217;60.232;24.776;2022-09-29T14:54:01;2;2;
49778;PMS5003;36217;60.232;24.776;2022-09-29T14:56:40;3;3;
49778;PMS5003;36217;60.232;24.776;2022-09-29T14:59:20;2;2;
49778;PMS5003;36217;60.232;24.776;2022-09-29T15:02:02;3;2;
49778;PMS5003;36217;60.232;24.776;2022-09-29T15:04:43;4;4;
49778;PMS5003;36217;60.232;24.776;2022-09-29T15:07:12;2;2;
49778;PMS5003;36217;60.232;24.776;2022-09-29T15:09:44;3;3;
49778;PMS5003;36217;60.232;24.776;2022-09-29T15:12:13;4;3;
49778;PMS5003;36217;60.232;24.776;2022-09-29T15:14:42;4;4;
49778;PMS5003;36217;60.232;24.776;2022-09-29T15:17:13;3;3;
49778;PMS5003;36217;60.232;24.776;2022-09-29T15:19:47;2;2;
49778;PMS5003;36217;60.232;24.776;2022-09-29T15:22:26;2;2;
49778;PMS5003;36217;60.232;24.776;2022-09-29T15:25:09;3;3;
49778;PMS5003;36217;60.232;24.776;2022-09-29T15:27:48;4;3;
49778;PMS5003;36217;60.232;24.776;2022-09-29T15:30:17;5;4;
49778;PMS5003;36217;60.232;24.776;2022-09-29T15:32:46;2;2;
49778;PMS5003;36217;60.232;24.776;2022-09-29T15:35:16;2;2;
49778;PMS5003;36217;60.232;24.776;2022-09-29T15:38:15;4;3;
49778;PMS5003;36217;60.232;24.776;2022-09-29T15:40:52;4;4;
49778;PMS5003;36217;60.232;24.776;2022-09-29T15:43:21;4;3;
49778;PMS5003;36217;60.232;24.776;2022-09-29T15:45:52;4;4;
49778;PMS5003;36217;60.232;24.776;2022-09-29T15:48:20;5;4;
49778;PMS5003;36217;60.232;24.776;2022-09-29T15:50:47;4;3;
49778;PMS5003;36217;60.232;24.776;2022-09-29T15:53:14;4;4;
49778;PMS5003;36217;60.232;24.776;2022-09-29T15:55:41;3;3;
49778;PMS5003;36217;60.232;24.776;2022-09-29T15:58:32;3;3;
49778;PMS5003;36217;60.232;24.776;2022-09-29T16:01:02;2;2;
49778;PMS5003;36217;60.232;24.776;2022-09-29T16:03:30;5;5;
49778;PMS5003;36217;60.232;24.776;2022-09-29T16:06:04;4;4;
49778;PMS5003;36217;60.232;24.776;2022-09-29T16:08:38;3;3;
49778;PMS5003;36217;60.232;24.776;2022-09-29T16:11:14;5;5;
49778;PMS5003;36217;60.232;24.776;2022-09-29T16:13:47;2;2;
49778;PMS5003;36217;60.232;24.776;2022-09-29T16:16:18;2;2;
49778;PMS5003;36217;60.232;24.776;2022-09-29T16:18:52;3;3;
49778;PMS5003;36217;60.232;24.776;2022-09-29T16:21:29;4;3;
49778;PMS5003;36217;60.232;24.776;2022-09-29T16:24:02;3;3;
49778;PMS5003;36217;60.232;24.776;2022-09-29T16:26:34;2;2;
49778;PMS5003;36217;60.232;24.776;2022-09-29T16:29:05;4;4;
49778;PMS5003;36217;60.232;24.776;2022-09-29T16:31:49;4;3;
49778;PMS5003;36217;60.232;24.776;2022-09-29T16:34:26;4;2;
49778;PMS5003;36217;60.232;24.776;2022-09-29T16:36:57;3;3;
49778;PMS5003;36217;60.232;24.776;2022-09-29T16:39:27;3;3;
49778;PMS5003;36217;60.232;24.776;2022-09-29T16:41:57;4;4;
49778;PMS5003;36217;60.232;24.776;2022-09-29T16:44:27;5;4;
49778;PMS5003;36217;60.232;24.776;2022-09-29T16:46:56;3;3;
49778;PMS5003;36217;60.232;24.776;2022-09-29T16:49:27;4;4;
49778;PMS5003;36217;60.232;24.776;2022-09-29T16:51:56;3;3;
49778;PMS5003;36217;60.232;24.776;2022-09-29T16:54:27;7;6;
49778;PMS5003;36217;60.232;24.776;2022-09-29T16:57:15;5;5;
49778;PMS5003;36217;60.232;24.776;2022-09-29T16:59:46;4;4;
49778;PMS5003;36217;60.232;24.776;2022-09-29T17:02:15;6;6;
49778;PMS5003;36217;60.232;24.776;2022-09-29T17:04:43;6;6;
49778;PMS5003;36217;60.232;24.776;2022-09-29T17:07:11;5;5;
49778;PMS5003;36217;60.232;24.776;2022-09-29T17:09:42;6;6;